sensor_id;sensor_type;location;lat;lon;timestamp;pressure;altitude;pressure_sealevel;temperature;humidity
57827;BME280;43656;57.746;11.780;2023-08-30T00:00:07;100560.50;;;18.19;100.00
57827;BME280;43656;57.746;11.780;2023-08-30T00:02:33;100560.19;;;18.15;100.00
57827;BME280;43656;57.746;11.780;2023-08-30T00:05:03;100553.56;;;18.11;100.00
57827;BME280;43656;57.746;11.780;2023-08-30T00:07:29;100554.09;;;18.08;100.00
57827;BME280;43656;57.746;11.780;2023-08-30T00:09:56;100577.06;;;18.17;100.00
57827;BME280;43656;57.746;11.780;2023-08-30T00:12:21;100576.53;;;18.15;100.00
57827;BME280;43656;57.746;11.780;2023-08-30T00:14:47;100578.47;;;18.20;100.00
57827;BME280;43656;57.746;11.780;2023-08-30T00:17:12;100574.34;;;18.17;100.00
57827;BME280;43656;57.746;11.780;2023-08-30T00:19:38;100572.19;;;18.19;100.00
57827;BME280;43656;57.746;11.780;2023-08-30T00:22:03;100575.44;;;18.16;100.00
57827;BME280;43656;57.746;11.780;2023-08-30T00:24:28;100573.22;;;18.13;100.00
57827;BME280;43656;57.746;11.780;2023-08-30T00:26:54;100575.16;;;18.18;100.00
57827;BME280;43656;57.746;11.780;2023-08-30T00:29:19;100565.34;;;18.17;100.00
57827;BME280;43656;57.746;11.780;2023-08-30T00:31:45;100573.84;;;18.20;100.00
57827;BME280;43656;57.746;11.780;2023-08-30T00:34:10;100586.44;;;18.26;100.00
57827;BME280;43656;57.746;11.780;2023-08-30T00:36:36;100569.72;;;18.18;100.00
57827;BME280;43656;57.746;11.780;2023-08-30T00:39:02;100566.75;;;18.19;100.00
57827;BME280;43656;57.746;11.780;2023-08-30T00:41:29;100576.34;;;18.27;100.00
57827;BME280;43656;57.746;11.780;2023-08-30T00:43:54;100584.28;;;18.28;100.00
57827;BME280;43656;57.746;11.780;2023-08-30T00:46:20;100571.38;;;18.19;100.00
57827;BME280;43656;57.746;11.780;2023-08-30T00:48:45;100532.97;;;17.93;100.00
57827;BME280;43656;57.746;11.780;2023-08-30T00:51:11;100573.00;;;18.20;100.00
57827;BME280;43656;57.746;11.780;2023-08-30T00:53:37;100573.53;;;18.17;100.00
57827;BME280;43656;57.746;11.780;2023-08-30T00:56:03;100561.63;;;18.01;100.00
57827;BME280;43656;57.746;11.780;2023-08-30T00:58:28;100564.63;;;17.99;100.00
57827;BME280;43656;57.746;11.780;2023-08-30T01:00:54;100562.13;;;17.98;100.00
57827;BME280;43656;57.746;11.780;2023-08-30T01:03:20;100564.31;;;17.96;100.00
57827;BME280;43656;57.746;11.780;2023-08-30T01:05:47;100563.72;;;17.94;100.00
57827;BME280;43656;57.746;11.780;2023-08-30T01:08:12;100556.38;;;17.94;100.00
57827;BME280;43656;57.746;11.780;2023-08-30T01:10:59;100559.09;;;17.94;100.00
57827;BME280;43656;57.746;11.780;2023-08-30T01:13:30;100557.16;;;17.90;100.00
57827;BME280;43656;57.746;11.780;2023-08-30T01:15:56;100568.84;;;17.90;100.00
57827;BME280;43656;57.746;11.780;2023-08-30T01:18:26;100560.97;;;17.89;100.00
57827;BME280;43656;57.746;11.780;2023-08-30T01:20:54;100565.81;;;17.87;100.00
57827;BME280;43656;57.746;11.780;2023-08-30T01:23:40;100556.25;;;17.84;100.00
57827;BME280;43656;57.746;11.780;2023-08-30T01:28:33;100547.38;;;17.72;100.00
57827;BME280;43656;57.746;11.780;2023-08-30T01:31:01;100555.13;;;17.80;100.00
57827;BME280;43656;57.746;11.780;2023-08-30T01:33:28;100552.66;;;17.78;100.00
57827;BME280;43656;57.746;11.780;2023-08-30T01:35:55;100549.09;;;17.78;100.00
57827;BME280;43656;57.746;11.780;2023-08-30T01:38:22;100547.13;;;17.73;100.00
57827;BME280;43656;57.746;11.780;2023-08-30T01:40:48;100544.34;;;17.68;100.00
57827;BME280;43656;57.746;11.780;2023-08-30T01:43:15;100553.13;;;17.75;100.00
57827;BME280;43656;57.746;11.780;2023-08-30T01:45:43;100530.66;;;17.63;100.00
57827;BME280;43656;57.746;11.780;2023-08-30T01:48:10;100535.66;;;17.71;100.00
57827;BME280;43656;57.746;11.780;2023-08-30T01:50:39;100537.63;;;17.76;100.00
57827;BME280;43656;57.746;11.780;2023-08-30T01:53:05;100528.41;;;17.77;100.00
57827;BME280;43656;57.746;11.780;2023-08-30T01:55:32;100535.75;;;17.76;100.00
57827;BME280;43656;57.746;11.780;2023-08-30T01:57:58;100534.09;;;17.75;100.00
57827;BME280;43656;57.746;11.780;2023-08-30T02:00:23;100528.03;;;17.68;100.00
57827;BME280;43656;57.746;11.780;2023-08-30T02:02:49;100535.47;;;17.56;100.00
57827;BME280;43656;57.746;11.780;2023-08-30T02:05:14;100528.06;;;17.73;100.00
57827;BME280;43656;57.746;11.780;2023-08-30T02:07:47;100520.72;;;17.74;100.00
57827;BME280;43656;57.746;11.780;2023-08-30T02:10:21;100507.25;;;17.62;100.00
57827;BME280;43656;57.746;11.780;2023-08-30T02:12:48;100515.16;;;17.64;100.00
57827;BME280;43656;57.746;11.780;2023-08-30T02:15:14;100493.94;;;17.44;100.00
57827;BME280;43656;57.746;11.780;2023-08-30T02:17:41;100500.09;;;17.56;100.00
57827;BME280;43656;57.746;11.780;2023-08-30T02:20:07;100505.28;;;17.57;100.00
57827;BME280;43656;57.746;11.780;2023-08-30T02:22:33;100514.22;;;17.53;100.00
57827;BME280;43656;57.746;11.780;2023-08-30T02:24:59;100492.38;;;17.48;100.00
57827;BME280;43656;57.746;11.780;2023-08-30T02:27:26;100488.19;;;17.40;100.00
57827;BME280;43656;57.746;11.780;2023-08-30T02:29:51;100502.69;;;17.46;100.00
57827;BME280;43656;57.746;11.780;2023-08-30T02:32:17;100498.31;;;17.45;100.00
57827;BME280;43656;57.746;11.780;2023-08-30T02:34:49;100490.16;;;17.45;100.00
57827;BME280;43656;57.746;11.780;2023-08-30T02:37:15;100488.47;;;17.38;100.00
57827;BME280;43656;57.746;11.780;2023-08-30T02:39:40;100487.88;;;17.36;100.00
57827;BME280;43656;57.746;11.780;2023-08-30T02:42:05;100472.25;;;17.27;100.00
57827;BME280;43656;57.746;11.780;2023-08-30T02:44:31;100490.50;;;17.31;100.00
57827;BME280;43656;57.746;11.780;2023-08-30T02:46:56;100491.00;;;17.28;100.00
57827;BME280;43656;57.746;11.780;2023-08-30T02:49:22;100489.38;;;17.27;100.00
57827;BME280;43656;57.746;11.780;2023-08-30T02:51:47;100498.63;;;17.26;100.00
57827;BME280;43656;57.746;11.780;2023-08-30T02:54:13;100497.53;;;17.27;100.00
57827;BME280;43656;57.746;11.780;2023-08-30T02:56:39;100506.50;;;17.28;100.00
57827;BME280;43656;57.746;11.780;2023-08-30T02:59:05;100504.38;;;17.30;100.00
57827;BME280;43656;57.746;11.780;2023-08-30T03:01:30;100455.25;;;16.98;100.00
57827;BME280;43656;57.746;11.780;2023-08-30T03:03:56;100506.28;;;17.29;100.00
57827;BME280;43656;57.746;11.780;2023-08-30T03:06:21;100493.69;;;17.23;100.00
57827;BME280;43656;57.746;11.780;2023-08-30T03:08:46;100507.59;;;17.27;100.00
57827;BME280;43656;57.746;11.780;2023-08-30T03:11:13;100517.88;;;17.25;100.00
57827;BME280;43656;57.746;11.780;2023-08-30T03:13:38;100499.63;;;17.20;100.00
57827;BME280;43656;57.746;11.780;2023-08-30T03:16:14;100486.97;;;17.09;100.00
57827;BME280;43656;57.746;11.780;2023-08-30T03:18:40;100496.25;;;17.13;100.00
57827;BME280;43656;57.746;11.780;2023-08-30T03:21:06;100497.06;;;17.13;100.00
57827;BME280;43656;57.746;11.780;2023-08-30T03:23:32;100503.59;;;17.12;100.00
57827;BME280;43656;57.746;11.780;2023-08-30T03:25:59;100505.22;;;17.13;100.00
57827;BME280;43656;57.746;11.780;2023-08-30T03:28:24;100485.78;;;17.05;100.00
57827;BME280;43656;57.746;11.780;2023-08-30T03:30:50;100497.34;;;17.12;100.00
57827;BME280;43656;57.746;11.780;2023-08-30T03:33:15;100502.50;;;17.13;100.00
57827;BME280;43656;57.746;11.780;2023-08-30T03:35:41;100493.03;;;17.16;100.00
57827;BME280;43656;57.746;11.780;2023-08-30T03:38:06;100499.28;;;17.17;100.00
57827;BME280;43656;57.746;11.780;2023-08-30T03:40:32;100487.59;;;17.16;100.00
57827;BME280;43656;57.746;11.780;2023-08-30T03:42:57;100484.94;;;17.21;100.00
57827;BME280;43656;57.746;11.780;2023-08-30T03:45:22;100489.81;;;17.19;100.00
57827;BME280;43656;57.746;11.780;2023-08-30T03:47:48;100493.88;;;17.17;100.00
57827;BME280;43656;57.746;11.780;2023-08-30T03:50:14;100484.63;;;17.18;100.00
57827;BME280;43656;57.746;11.780;2023-08-30T03:52:39;100489.75;;;17.14;100.00
57827;BME280;43656;57.746;11.780;2023-08-30T03:55:05;100492.72;;;17.12;100.00
57827;BME280;43656;57.746;11.780;2023-08-30T03:57:30;100481.84;;;17.12;100.00
57827;BME280;43656;57.746;11.780;2023-08-30T03:59:56;100473.78;;;17.01;100.00
57827;BME280;43656;57.746;11.780;2023-08-30T04:02:21;100493.44;;;17.08;100.00
57827;BME280;43656;57.746;11.780;2023-08-30T04:04:47;100490.19;;;17.06;100.00
57827;BME280;43656;57.746;11.780;2023-08-30T04:07:15;100481.69;;;17.02;100.00
57827;BME280;43656;57.746;11.780;2023-08-30T04:09:41;100481.53;;;17.09;100.00
57827;BME280;43656;57.746;11.780;2023-08-30T04:12:06;100484.25;;;17.09;100.00
57827;BME280;43656;57.746;11.780;2023-08-30T04:14:32;100469.34;;;16.95;100.00
57827;BME280;43656;57.746;11.780;2023-08-30T04:16:58;100484.16;;;17.04;100.00
57827;BME280;43656;57.746;11.780;2023-08-30T04:19:23;100488.03;;;17.08;100.00
57827;BME280;43656;57.746;11.780;2023-08-30T04:21:49;100474.69;;;17.06;100.00
57827;BME280;43656;57.746;11.780;2023-08-30T04:24:15;100472.28;;;17.10;100.00
57827;BME280;43656;57.746;11.780;2023-08-30T04:26:41;100478.88;;;17.14;100.00
57827;BME280;43656;57.746;11.780;2023-08-30T04:29:07;100479.69;;;17.14;100.00
57827;BME280;43656;57.746;11.780;2023-08-30T04:31:32;100467.34;;;17.07;100.00
57827;BME280;43656;57.746;11.780;2023-08-30T04:33:58;100472.28;;;17.10;100.00
57827;BME280;43656;57.746;11.780;2023-08-30T04:36:23;100464.94;;;17.10;100.00
57827;BME280;43656;57.746;11.780;2023-08-30T04:38:49;100458.63;;;17.05;100.00
57827;BME280;43656;57.746;11.780;2023-08-30T04:41:14;100466.53;;;17.06;100.00
57827;BME280;43656;57.746;11.780;2023-08-30T04:43:40;100463.88;;;17.11;100.00
57827;BME280;43656;57.746;11.780;2023-08-30T04:46:05;100452.13;;;17.06;100.00
57827;BME280;43656;57.746;11.780;2023-08-30T04:48:31;100459.84;;;17.14;100.00
57827;BME280;43656;57.746;11.780;2023-08-30T04:51:04;100457.44;;;17.18;100.00
57827;BME280;43656;57.746;11.780;2023-08-30T04:53:30;100456.38;;;17.19;100.00
57827;BME280;43656;57.746;11.780;2023-08-30T04:55:55;100438.84;;;17.09;100.00
57827;BME280;43656;57.746;11.780;2023-08-30T04:58:21;100461.56;;;17.20;100.00
57827;BME280;43656;57.746;11.780;2023-08-30T05:00:46;100462.69;;;17.24;100.00
57827;BME280;43656;57.746;11.780;2023-08-30T05:03:12;100463.59;;;17.30;100.00
57827;BME280;43656;57.746;11.780;2023-08-30T05:05:37;100458.47;;;17.33;100.00
57827;BME280;43656;57.746;11.780;2023-08-30T05:08:02;100462.31;;;17.37;100.00
57827;BME280;43656;57.746;11.780;2023-08-30T05:10:29;100466.13;;;17.36;100.00
57827;BME280;43656;57.746;11.780;2023-08-30T05:12:54;100459.38;;;17.39;100.00
57827;BME280;43656;57.746;11.780;2023-08-30T05:15:20;100459.91;;;17.41;100.00
57827;BME280;43656;57.746;11.780;2023-08-30T05:17:46;100471.59;;;17.42;100.00
57827;BME280;43656;57.746;11.780;2023-08-30T05:20:11;100459.03;;;17.35;100.00
57827;BME280;43656;57.746;11.780;2023-08-30T05:22:36;100460.38;;;17.33;100.00
57827;BME280;43656;57.746;11.780;2023-08-30T05:25:02;100457.34;;;17.29;100.00
57827;BME280;43656;57.746;11.780;2023-08-30T05:27:28;100456.19;;;17.25;100.00
57827;BME280;43656;57.746;11.780;2023-08-30T05:29:53;100458.38;;;17.28;100.00
57827;BME280;43656;57.746;11.780;2023-08-30T05:32:21;100399.25;;;16.97;100.00
57827;BME280;43656;57.746;11.780;2023-08-30T05:34:47;100451.19;;;17.39;100.00
57827;BME280;43656;57.746;11.780;2023-08-30T05:37:13;100458.59;;;18.15;100.00
57827;BME280;43656;57.746;11.780;2023-08-30T05:39:38;100453.50;;;18.23;100.00
57827;BME280;43656;57.746;11.780;2023-08-30T05:42:04;100458.91;;;18.18;100.00
57827;BME280;43656;57.746;11.780;2023-08-30T05:44:30;100450.78;;;18.23;100.00
57827;BME280;43656;57.746;11.780;2023-08-30T05:46:55;100441.34;;;18.36;100.00
57827;BME280;43656;57.746;11.780;2023-08-30T05:49:21;100448.00;;;18.50;100.00
57827;BME280;43656;57.746;11.780;2023-08-30T05:51:46;100435.28;;;18.61;100.00
57827;BME280;43656;57.746;11.780;2023-08-30T05:54:13;100433.69;;;18.65;100.00
57827;BME280;43656;57.746;11.780;2023-08-30T05:56:38;100449.09;;;18.82;100.00
57827;BME280;43656;57.746;11.780;2023-08-30T05:59:04;100437.66;;;18.85;100.00
57827;BME280;43656;57.746;11.780;2023-08-30T06:01:29;100445.44;;;19.08;100.00
57827;BME280;43656;57.746;11.780;2023-08-30T06:03:55;100447.41;;;19.23;100.00
57827;BME280;43656;57.746;11.780;2023-08-30T06:06:20;100450.47;;;19.32;100.00
57827;BME280;43656;57.746;11.780;2023-08-30T06:08:46;100434.59;;;19.23;100.00
57827;BME280;43656;57.746;11.780;2023-08-30T06:11:11;100454.81;;;19.33;100.00
57827;BME280;43656;57.746;11.780;2023-08-30T06:13:37;100434.78;;;19.07;100.00
57827;BME280;43656;57.746;11.780;2023-08-30T06:16:02;100452.84;;;19.18;100.00
57827;BME280;43656;57.746;11.780;2023-08-30T06:18:31;100442.72;;;19.13;100.00
57827;BME280;43656;57.746;11.780;2023-08-30T06:21:00;100443.31;;;19.20;100.00
57827;BME280;43656;57.746;11.780;2023-08-30T06:23:26;100446.59;;;19.17;100.00
57827;BME280;43656;57.746;11.780;2023-08-30T06:25:56;100442.47;;;19.15;100.00
57827;BME280;43656;57.746;11.780;2023-08-30T06:28:21;100446.59;;;19.17;100.00
57827;BME280;43656;57.746;11.780;2023-08-30T06:30:47;100445.50;;;19.23;100.00
57827;BME280;43656;57.746;11.780;2023-08-30T06:33:13;100440.94;;;19.39;100.00
57827;BME280;43656;57.746;11.780;2023-08-30T06:35:38;100451.38;;;19.63;100.00
57827;BME280;43656;57.746;11.780;2023-08-30T06:38:05;100448.47;;;19.80;100.00
57827;BME280;43656;57.746;11.780;2023-08-30T06:40:30;100438.94;;;19.92;100.00
57827;BME280;43656;57.746;11.780;2023-08-30T06:42:55;100451.28;;;20.26;100.00
57827;BME280;43656;57.746;11.780;2023-08-30T06:45:22;100447.75;;;20.56;100.00
57827;BME280;43656;57.746;11.780;2023-08-30T06:47:51;100444.75;;;20.78;100.00
57827;BME280;43656;57.746;11.780;2023-08-30T06:50:17;100447.47;;;20.83;100.00
57827;BME280;43656;57.746;11.780;2023-08-30T06:52:43;100453.19;;;20.92;100.00
57827;BME280;43656;57.746;11.780;2023-08-30T06:55:08;100448.53;;;20.92;100.00
57827;BME280;43656;57.746;11.780;2023-08-30T06:57:34;100451.81;;;20.89;100.00
57827;BME280;43656;57.746;11.780;2023-08-30T07:00:00;100446.38;;;20.84;100.00
57827;BME280;43656;57.746;11.780;2023-08-30T07:02:37;100431.38;;;20.51;100.00
57827;BME280;43656;57.746;11.780;2023-08-30T07:05:02;100455.16;;;20.71;100.00
57827;BME280;43656;57.746;11.780;2023-08-30T07:07:29;100464.44;;;20.75;100.00
57827;BME280;43656;57.746;11.780;2023-08-30T07:09:54;100432.44;;;20.50;100.00
57827;BME280;43656;57.746;11.780;2023-08-30T07:12:20;100460.06;;;20.69;100.00
57827;BME280;43656;57.746;11.780;2023-08-30T07:14:45;100466.06;;;20.96;100.00
57827;BME280;43656;57.746;11.780;2023-08-30T07:17:11;100462.94;;;21.28;100.00
57827;BME280;43656;57.746;11.780;2023-08-30T07:19:36;100467.28;;;21.45;100.00
57827;BME280;43656;57.746;11.780;2023-08-30T07:22:02;100461.75;;;21.60;100.00
57827;BME280;43656;57.746;11.780;2023-08-30T07:24:28;100470.75;;;21.71;100.00
57827;BME280;43656;57.746;11.780;2023-08-30T07:26:53;100467.69;;;21.83;99.93
57827;BME280;43656;57.746;11.780;2023-08-30T07:29:18;100461.94;;;21.79;99.44
57827;BME280;43656;57.746;11.780;2023-08-30T07:31:44;100475.09;;;21.82;99.17
57827;BME280;43656;57.746;11.780;2023-08-30T07:34:09;100466.28;;;21.85;98.57
57827;BME280;43656;57.746;11.780;2023-08-30T07:36:35;100463.03;;;21.83;98.43
57827;BME280;43656;57.746;11.780;2023-08-30T07:39:00;100469.00;;;21.90;97.88
57827;BME280;43656;57.746;11.780;2023-08-30T07:41:27;100463.53;;;21.90;97.59
57827;BME280;43656;57.746;11.780;2023-08-30T07:43:53;100471.81;;;21.80;97.86
57827;BME280;43656;57.746;11.780;2023-08-30T07:46:18;100465.75;;;21.83;97.32
57827;BME280;43656;57.746;11.780;2023-08-30T07:48:44;100458.69;;;21.72;97.14
57827;BME280;43656;57.746;11.780;2023-08-30T07:51:09;100483.88;;;21.79;97.14
57827;BME280;43656;57.746;11.780;2023-08-30T07:53:35;100479.44;;;21.83;96.43
57827;BME280;43656;57.746;11.780;2023-08-30T07:56:00;100460.28;;;21.78;96.06
57827;BME280;43656;57.746;11.780;2023-08-30T07:58:26;100463.28;;;21.87;95.76
57827;BME280;43656;57.746;11.780;2023-08-30T08:00:54;100465.72;;;21.88;95.31
57827;BME280;43656;57.746;11.780;2023-08-30T08:03:23;100452.00;;;21.93;95.17
57827;BME280;43656;57.746;11.780;2023-08-30T08:05:48;100472.19;;;22.08;94.40
57827;BME280;43656;57.746;11.780;2023-08-30T08:08:14;100474.91;;;22.13;93.97
57827;BME280;43656;57.746;11.780;2023-08-30T08:10:41;100451.91;;;22.09;93.44
57827;BME280;43656;57.746;11.780;2023-08-30T08:13:07;100453.25;;;22.16;92.84
57827;BME280;43656;57.746;11.780;2023-08-30T08:15:32;100478.06;;;22.35;91.71
57827;BME280;43656;57.746;11.780;2023-08-30T08:18:01;100477.63;;;22.13;91.84
57827;BME280;43656;57.746;11.780;2023-08-30T08:20:28;100477.63;;;22.13;91.59
57827;BME280;43656;57.746;11.780;2023-08-30T08:22:54;100474.66;;;22.09;91.39
57827;BME280;43656;57.746;11.780;2023-08-30T08:25:20;100477.03;;;22.26;91.06
57827;BME280;43656;57.746;11.780;2023-08-30T08:27:47;100477.28;;;22.30;91.00
57827;BME280;43656;57.746;11.780;2023-08-30T08:30:13;100475.25;;;22.40;91.36
57827;BME280;43656;57.746;11.780;2023-08-30T08:32:38;100466.28;;;22.64;90.77
57827;BME280;43656;57.746;11.780;2023-08-30T08:35:04;100465.38;;;22.73;90.12
57827;BME280;43656;57.746;11.780;2023-08-30T08:37:31;100451.34;;;22.80;88.90
57827;BME280;43656;57.746;11.780;2023-08-30T08:39:56;100454.13;;;23.04;87.75
57827;BME280;43656;57.746;11.780;2023-08-30T08:42:22;100460.84;;;23.17;87.24
57827;BME280;43656;57.746;11.780;2023-08-30T08:44:50;100461.03;;;23.26;87.14
57827;BME280;43656;57.746;11.780;2023-08-30T08:47:20;100459.63;;;23.52;86.07
57827;BME280;43656;57.746;11.780;2023-08-30T08:49:49;100432.56;;;23.40;84.88
57827;BME280;43656;57.746;11.780;2023-08-30T08:52:15;100446.16;;;23.51;82.24
57827;BME280;43656;57.746;11.780;2023-08-30T08:54:40;100454.13;;;23.52;81.04
57827;BME280;43656;57.746;11.780;2023-08-30T08:57:07;100461.47;;;23.57;80.56
57827;BME280;43656;57.746;11.780;2023-08-30T08:59:32;100457.63;;;23.58;80.23
57827;BME280;43656;57.746;11.780;2023-08-30T09:02:00;100447.47;;;23.58;77.32
57827;BME280;43656;57.746;11.780;2023-08-30T09:04:25;100471.38;;;23.58;75.59
57827;BME280;43656;57.746;11.780;2023-08-30T09:06:51;100466.84;;;23.67;74.78
57827;BME280;43656;57.746;11.780;2023-08-30T09:09:17;100469.94;;;23.60;74.69
57827;BME280;43656;57.746;11.780;2023-08-30T09:11:43;100465.31;;;23.80;73.18
57827;BME280;43656;57.746;11.780;2023-08-30T09:14:09;100467.13;;;23.89;73.04
57827;BME280;43656;57.746;11.780;2023-08-30T09:16:34;100469.72;;;24.00;71.62
57827;BME280;43656;57.746;11.780;2023-08-30T09:19:01;100473.44;;;24.09;71.49
57827;BME280;43656;57.746;11.780;2023-08-30T09:21:27;100477.38;;;24.03;72.15
57827;BME280;43656;57.746;11.780;2023-08-30T09:24:06;100472.78;;;23.98;72.12
57827;BME280;43656;57.746;11.780;2023-08-30T09:26:33;100469.56;;;24.10;71.59
57827;BME280;43656;57.746;11.780;2023-08-30T09:29:09;100469.06;;;24.08;71.54
57827;BME280;43656;57.746;11.780;2023-08-30T09:31:36;100474.78;;;24.11;70.66
57827;BME280;43656;57.746;11.780;2023-08-30T09:34:03;100458.44;;;23.82;68.05
57827;BME280;43656;57.746;11.780;2023-08-30T09:39:12;100456.31;;;23.31;66.99
57827;BME280;43656;57.746;11.780;2023-08-30T09:41:42;100460.44;;;23.53;68.32
57827;BME280;43656;57.746;11.780;2023-08-30T09:44:33;100469.84;;;23.47;68.69
57827;BME280;43656;57.746;11.780;2023-08-30T09:46:59;100468.63;;;23.58;68.60
57827;BME280;43656;57.746;11.780;2023-08-30T09:49:26;100468.09;;;23.56;66.58
57827;BME280;43656;57.746;11.780;2023-08-30T09:51:53;100474.47;;;23.51;66.77
57827;BME280;43656;57.746;11.780;2023-08-30T09:54:22;100469.25;;;23.50;66.70
57827;BME280;43656;57.746;11.780;2023-08-30T09:56:48;100478.78;;;23.33;66.08
57827;BME280;43656;57.746;11.780;2023-08-30T09:59:18;100475.41;;;23.41;65.69
57827;BME280;43656;57.746;11.780;2023-08-30T10:01:46;100448.47;;;23.43;65.57
57827;BME280;43656;57.746;11.780;2023-08-30T10:04:13;100459.84;;;23.56;65.23
57827;BME280;43656;57.746;11.780;2023-08-30T10:06:40;100464.31;;;23.52;65.97
57827;BME280;43656;57.746;11.780;2023-08-30T10:09:07;100466.28;;;23.70;67.06
57827;BME280;43656;57.746;11.780;2023-08-30T10:11:37;100473.88;;;23.97;65.78
57827;BME280;43656;57.746;11.780;2023-08-30T10:14:04;100473.66;;;24.12;65.10
57827;BME280;43656;57.746;11.780;2023-08-30T10:16:35;100458.34;;;24.25;64.49
57827;BME280;43656;57.746;11.780;2023-08-30T10:19:07;100453.66;;;24.26;64.84
57827;BME280;43656;57.746;11.780;2023-08-30T10:21:34;100459.47;;;24.24;63.92
57827;BME280;43656;57.746;11.780;2023-08-30T10:24:05;100466.81;;;24.29;64.13
57827;BME280;43656;57.746;11.780;2023-08-30T10:26:32;100470.97;;;24.26;64.39
57827;BME280;43656;57.746;11.780;2023-08-30T10:28:58;100457.00;;;24.04;65.32
57827;BME280;43656;57.746;11.780;2023-08-30T10:31:25;100467.72;;;24.24;65.60
57827;BME280;43656;57.746;11.780;2023-08-30T10:33:55;100459.00;;;24.36;65.33
57827;BME280;43656;57.746;11.780;2023-08-30T10:36:26;100474.03;;;24.44;65.67
57827;BME280;43656;57.746;11.780;2023-08-30T10:38:55;100475.97;;;24.24;65.88
57827;BME280;43656;57.746;11.780;2023-08-30T10:41:25;100481.69;;;24.28;66.19
57827;BME280;43656;57.746;11.780;2023-08-30T10:44:01;100476.47;;;24.26;66.63
57827;BME280;43656;57.746;11.780;2023-08-30T10:46:33;100465.13;;;24.14;66.95
57827;BME280;43656;57.746;11.780;2023-08-30T10:49:10;100479.81;;;24.23;66.68
57827;BME280;43656;57.746;11.780;2023-08-30T10:51:38;100478.25;;;24.36;66.54
57827;BME280;43656;57.746;11.780;2023-08-30T10:54:13;100476.91;;;24.33;66.08
57827;BME280;43656;57.746;11.780;2023-08-30T10:57:11;100476.47;;;24.45;65.60
57827;BME280;43656;57.746;11.780;2023-08-30T10:59:39;100479.81;;;24.61;65.28
57827;BME280;43656;57.746;11.780;2023-08-30T11:02:06;100478.22;;;24.74;63.82
57827;BME280;43656;57.746;11.780;2023-08-30T11:04:32;100479.69;;;24.66;63.25
57827;BME280;43656;57.746;11.780;2023-08-30T11:06:57;100470.22;;;24.58;63.01
57827;BME280;43656;57.746;11.780;2023-08-30T11:09:24;100484.28;;;24.57;63.10
57827;BME280;43656;57.746;11.780;2023-08-30T11:11:50;100482.84;;;24.59;62.45
57827;BME280;43656;57.746;11.780;2023-08-30T11:14:17;100481.53;;;24.57;61.75
57827;BME280;43656;57.746;11.780;2023-08-30T11:16:44;100489.53;;;24.53;61.91
57827;BME280;43656;57.746;11.780;2023-08-30T11:19:10;100473.28;;;24.38;62.02
57827;BME280;43656;57.746;11.780;2023-08-30T11:21:43;100483.00;;;24.49;62.48
57827;BME280;43656;57.746;11.780;2023-08-30T11:24:09;100486.66;;;24.45;62.94
57827;BME280;43656;57.746;11.780;2023-08-30T11:26:36;100480.84;;;24.46;63.04
57827;BME280;43656;57.746;11.780;2023-08-30T11:29:06;100475.78;;;24.53;62.69
57827;BME280;43656;57.746;11.780;2023-08-30T11:31:32;100477.25;;;24.65;62.28
57827;BME280;43656;57.746;11.780;2023-08-30T11:33:58;100462.78;;;24.59;62.35
57827;BME280;43656;57.746;11.780;2023-08-30T11:36:29;100474.53;;;24.78;62.05
57827;BME280;43656;57.746;11.780;2023-08-30T11:38:55;100468.13;;;24.83;61.32
57827;BME280;43656;57.746;11.780;2023-08-30T11:41:21;100472.50;;;24.70;61.44
57827;BME280;43656;57.746;11.780;2023-08-30T11:43:47;100467.38;;;24.64;62.14
57827;BME280;43656;57.746;11.780;2023-08-30T11:46:13;100474.78;;;24.63;62.42
57827;BME280;43656;57.746;11.780;2023-08-30T11:48:41;100461.63;;;24.60;61.35
57827;BME280;43656;57.746;11.780;2023-08-30T11:51:08;100475.50;;;24.55;61.55
57827;BME280;43656;57.746;11.780;2023-08-30T11:53:34;100461.59;;;24.46;61.59
57827;BME280;43656;57.746;11.780;2023-08-30T11:56:01;100467.91;;;24.47;61.18
57827;BME280;43656;57.746;11.780;2023-08-30T11:58:26;100464.13;;;24.43;60.71
57827;BME280;43656;57.746;11.780;2023-08-30T12:00:53;100455.28;;;24.46;59.66
57827;BME280;43656;57.746;11.780;2023-08-30T12:03:21;100444.59;;;24.44;60.38
57827;BME280;43656;57.746;11.780;2023-08-30T12:05:48;100453.63;;;24.64;59.57
57827;BME280;43656;57.746;11.780;2023-08-30T12:08:20;100458.19;;;24.54;59.43
57827;BME280;43656;57.746;11.780;2023-08-30T12:10:46;100462.50;;;24.42;58.23
57827;BME280;43656;57.746;11.780;2023-08-30T12:13:27;100457.53;;;24.44;57.93
57827;BME280;43656;57.746;11.780;2023-08-30T12:15:55;100454.78;;;24.44;57.50
57827;BME280;43656;57.746;11.780;2023-08-30T12:18:26;100449.34;;;24.38;58.97
57827;BME280;43656;57.746;11.780;2023-08-30T12:20:59;100455.59;;;24.44;58.17
57827;BME280;43656;57.746;11.780;2023-08-30T12:23:32;100444.88;;;24.43;58.32
57827;BME280;43656;57.746;11.780;2023-08-30T12:26:11;100459.75;;;24.42;58.77
57827;BME280;43656;57.746;11.780;2023-08-30T12:28:40;100448.16;;;24.45;59.32
57827;BME280;43656;57.746;11.780;2023-08-30T12:31:07;100460.19;;;24.49;59.28
57827;BME280;43656;57.746;11.780;2023-08-30T12:33:36;100455.72;;;24.53;59.18
57827;BME280;43656;57.746;11.780;2023-08-30T12:36:02;100440.50;;;24.23;57.99